Flight Track Log - Related Links

Times and Time Zones

All times are in EDT time to prevent confusion due to time zone crossing. See the UAL4476 flight status page for this flight to view local times or setup timezone preferences in your user account.

Time Position Orientation Groundspeed Altitude Reporting Facility
EDT Latitude Longitude Course Direction KTS MPH feet Rate Location/Type
Mon 07:18:17 AM 32.8500 -97.0167 57° Northeast 174 200 2,800  Level Dallas / Fort Worth TRACON
Mon 07:19:24 AM 32.7833 -96.9833 157° South 245 282 4,900 2,063 Climbing Dallas / Fort Worth TRACON
Mon 07:20:25 AM 32.7667 -96.9000 103° East 288 331 7,200 2,182 Climbing Dallas / Fort Worth TRACON
Mon 07:21:25 AM 32.7833 -96.8000 79° East 304 350 9,300 1,486 Climbing Dallas / Fort Worth TRACON
Mon 07:23:00 AM 33.0161 -96.4108 57° Northeast  Level FlightAware Approximate
Mon 07:23:55 AM 32.9267 -96.5819 52° Northeast 353 406 12,400  Level Fort Worth Center
Mon 07:24:55 AM 32.9947 -96.4722 53° Northeast 394 453 13,800 1,400 Climbing Fort Worth Center
Mon 07:25:55 AM 33.0567 -96.3750 53° Northeast 400 460 15,200 1,500 Climbing Fort Worth Center
Mon 07:26:55 AM 33.1097 -96.2428 64° Northeast 400 460 16,800 1,250 Climbing Fort Worth Center
Mon 07:27:55 AM 33.1442 -96.1283 70° East 400 460 17,700 1,100 Climbing Fort Worth Center
Mon 07:28:55 AM 33.1883 -95.9786 71° East 414 476 19,000 1,100 Climbing Fort Worth Center
Mon 07:29:55 AM 33.2225 -95.8539 72° East 432 497 19,900 1,000 Climbing Fort Worth Center
Mon 07:30:55 AM 33.2686 -95.7042 70° East 437 503 21,000 1,000 Climbing Fort Worth Center
Mon 07:31:55 AM 33.3022 -95.5767 72° East 444 511 21,900 950 Climbing Fort Worth Center
Mon 07:32:55 AM 33.3439 -95.4292 71° East 449 517 22,900 1,000 Climbing Fort Worth Center
Mon 07:33:55 AM 33.3894 -95.2864 69° East 454 522 23,900 1,000 Climbing Fort Worth Center
Mon 07:34:55 AM 33.4286 -95.1386 72° East 454 522 24,900 1,000 Climbing Fort Worth Center
Mon 07:35:55 AM 33.4719 -94.9931 70° East 454 522 25,900 1,000 Climbing Fort Worth Center
Mon 07:36:55 AM 33.5167 -94.8372 71° East 454 522 26,900 4,550 Climbing Fort Worth Center
Mon 07:37:55 AM 33.5575 -94.6914 71° East 454 522 35,000 1,000 Climbing Fort Worth Center
Mon 07:38:55 AM 33.5981 -94.5481 71° East 445 512 28,900 -2,550 Descending Fort Worth Center
Mon 07:39:55 AM 33.6406 -94.4044 70° East 451 519 29,900 1,000 Climbing Fort Worth Center
Mon 07:40:55 AM 33.6789 -94.2633 72° East 451 519 30,900 955 Climbing Fort Worth Center
Mon 07:42:32 AM 33.7758 -94.0531 61° Northeast 445 512 32,400 994 Climbing Memphis Center
Mon 07:43:32 AM 33.8358 -93.9233 61° Northeast 445 512 33,500 950 Climbing Memphis Center
Mon 07:44:32 AM 33.9022 -93.7958 58° Northeast 445 512 34,300 650 Climbing Memphis Center
Mon 07:45:32 AM 33.9642 -93.6656 60° Northeast 445 512 34,800 350 Climbing Memphis Center
Mon 07:46:32 AM 34.0322 -93.5303 59° Northeast 450 518 35,000 100 Climbing Memphis Center
Mon 07:47:32 AM 34.0983 -93.3947 59° Northeast 461 531 35,000  Level Memphis Center
Mon 07:48:32 AM 34.1664 -93.2492 60° Northeast 469 540 35,000  Level Memphis Center
Mon 07:49:32 AM 34.2364 -93.1058 59° Northeast 482 555 35,000  Level Memphis Center
Mon 07:50:32 AM 34.3106 -92.9597 58° Northeast 489 563 35,000  Level Memphis Center
Mon 07:51:32 AM 34.3761 -92.8106 62° Northeast 500 575 35,000  Level Memphis Center
Mon 07:52:32 AM 34.4392 -92.6792 60° Northeast 500 575 35,000  Level Memphis Center
Mon 07:53:32 AM 34.5172 -92.5197 59° Northeast 500 575 35,000  Level Memphis Center
Mon 07:54:32 AM 34.5842 -92.3753 61° Northeast 495 570 35,000  Level Memphis Center
Mon 07:55:32 AM 34.6553 -92.2281 60° Northeast 495 570 35,000  Level Memphis Center
Mon 07:56:32 AM 34.7408 -92.1008 51° Northeast 489 563 35,000  Level Memphis Center
Mon 07:57:32 AM 34.8364 -91.9764 47° Northeast 489 563 35,000  Level Memphis Center
Mon 07:58:32 AM 34.9317 -91.8542 46° Northeast 489 563 35,000  Level Memphis Center
Mon 07:59:32 AM 35.0247 -91.7367 46° Northeast 489 563 35,000  Level Memphis Center
Mon 08:00:32 AM 35.1200 -91.6136 47° Northeast 489 563 35,000  Level Memphis Center
Mon 08:01:32 AM 35.2172 -91.4881 47° Northeast 489 563 35,000  Level Memphis Center
Mon 08:02:32 AM 35.3078 -91.3672 47° Northeast 489 563 35,000  Level Memphis Center
Mon 08:03:32 AM 35.4069 -91.2436 45° Northeast 489 563 35,000  Level Memphis Center
Mon 08:04:32 AM 35.4994 -91.1247 46° Northeast 489 563 35,000  Level Memphis Center
Mon 08:05:32 AM 35.5939 -90.9978 48° Northeast 489 563 35,000  Level Memphis Center
Mon 08:06:32 AM 35.6883 -90.8758 46° Northeast 489 563 35,000  Level Memphis Center
Mon 08:07:32 AM 35.7764 -90.7536 48° Northeast 483 556 35,000  Level Memphis Center
Mon 08:08:32 AM 35.8706 -90.6311 46° Northeast 483 556 35,000  Level Memphis Center
Mon 08:09:32 AM 35.9647 -90.5058 47° Northeast 490 564 35,000  Level Memphis Center
Mon 08:10:32 AM 36.0544 -90.3828 48° Northeast 490 564 35,000  Level Memphis Center
Mon 08:11:32 AM 36.1439 -90.2619 47° Northeast 485 558 35,000  Level Memphis Center
Mon 08:12:32 AM 36.2356 -90.1383 47° Northeast 485 558 35,000  Level Memphis Center
Mon 08:13:32 AM 36.3292 -90.0117 47° Northeast 485 558 35,000  Level Memphis Center
Mon 08:14:32 AM 36.4183 -89.8928 47° Northeast 485 558 35,000  Level Memphis Center
Mon 08:15:32 AM 36.5117 -89.7656 48° Northeast 485 558 35,000  Level Memphis Center
Mon 08:16:32 AM 36.6025 -89.6411 48° Northeast 485 558 35,000  Level Memphis Center
Mon 08:17:32 AM 36.6853 -89.5289 47° Northeast 485 558 35,000  Level Memphis Center
Mon 08:18:32 AM 36.7781 -89.4011 48° Northeast 485 558 35,000  Level Memphis Center
Mon 08:19:32 AM 36.8708 -89.2728 48° Northeast 490 564 35,000  Level Memphis Center
Mon 08:20:32 AM 36.9614 -89.1469 48° Northeast 490 564 35,000  Level Memphis Center
Mon 08:21:32 AM 37.0539 -89.0183 48° Northeast 490 564 35,000  Level Memphis Center
Mon 08:22:32 AM 37.1461 -88.8892 48° Northeast 490 564 35,000  Level Memphis Center
Mon 08:23:32 AM 37.2383 -88.7625 48° Northeast 490 564 35,000  Level Memphis Center
Mon 08:24:32 AM 37.3219 -88.6225 53° Northeast 490 564 35,000  Level Memphis Center
Mon 08:25:32 AM 37.3906 -88.4722 60° Northeast 496 571 35,000  Level Memphis Center
Mon 08:26:48 AM 37.4856 -88.2544 61° Northeast 510 587 35,000  Level Indianapolis Center
Mon 08:27:49 AM 37.5558 -88.0975 61° Northeast 510 587 35,000  Level Indianapolis Center
Mon 08:28:51 AM 37.6283 -87.9411 60° Northeast 510 587 35,000  Level Indianapolis Center
Mon 08:29:53 AM 37.6983 -87.7819 61° Northeast 511 588 35,000  Level Indianapolis Center
Mon 08:30:54 AM 37.7686 -87.6253 60° Northeast 509 586 35,000  Level Indianapolis Center
Mon 08:31:56 AM 37.8436 -87.4567 61° Northeast 510 587 35,000  Level Indianapolis Center
Mon 08:32:57 AM 37.9128 -87.3019 60° Northeast 508 585 35,000  Level Indianapolis Center
Mon 08:33:59 AM 37.9806 -87.1475 61° Northeast 505 581 35,000  Level Indianapolis Center
Mon 08:35:01 AM 38.0481 -86.9939 61° Northeast 502 578 35,000  Level Indianapolis Center
Mon 08:36:02 AM 38.1153 -86.8408 61° Northeast 503 579 35,000  Level Indianapolis Center
Mon 08:37:04 AM 38.1819 -86.6872 61° Northeast 501 577 35,000  Level Indianapolis Center
Mon 08:38:05 AM 38.2622 -86.5008 61° Northeast 503 579 35,000  Level Indianapolis Center
Mon 08:39:07 AM 38.3311 -86.3439 61° Northeast 506 582 35,000  Level Indianapolis Center
Mon 08:40:08 AM 38.3975 -86.1869 62° Northeast 504 580 35,000  Level Indianapolis Center
Mon 08:41:10 AM 38.4647 -86.0286 61° Northeast 507 583 35,000  Level Indianapolis Center
Mon 08:42:12 AM 38.5322 -85.8722 61° Northeast 502 578 35,000  Level Indianapolis Center
Mon 08:43:13 AM 38.5994 -85.7139 61° Northeast 504 580 35,000  Level Indianapolis Center
Mon 08:44:15 AM 38.6739 -85.5344 62° Northeast 503 579 35,000  Level Indianapolis Center
Mon 08:45:16 AM 38.7447 -85.3794 60° Northeast 502 578 35,000  Level Indianapolis Center
Mon 08:46:18 AM 38.8369 -85.2489 48° Northeast 490 564 35,000  Level Indianapolis Center
Mon 08:47:19 AM 38.9283 -85.1172 48° Northeast 491 565 35,000  Level Indianapolis Center
Mon 08:48:21 AM 39.0175 -84.9856 49° Northeast 486 559 35,000  Level Indianapolis Center
Mon 08:49:23 AM 39.1072 -84.8558 48° Northeast 476 548 35,000  Level Indianapolis Center
Mon 08:50:24 AM 39.1944 -84.7286 48° Northeast 470 541 35,000  Level Indianapolis Center
Mon 08:51:26 AM 39.2822 -84.5997 49° Northeast 473 544 35,000  Level Indianapolis Center
Mon 08:52:27 AM 39.3708 -84.4697 49° Northeast 477 549 35,000 -829 Level Indianapolis Center
Mon 08:53:29 AM 39.4578 -84.3389 49° Northeast 476 548 33,300 -1,805 Descending Indianapolis Center
Mon 08:54:30 AM 39.5461 -84.2092 49° Northeast 476 548 31,300 -1,902 Descending Indianapolis Center
Mon 08:55:32 AM 39.6353 -84.0750 49° Northeast 484 557 29,400 -1,113 Descending Indianapolis Center
Mon 08:56:34 AM 39.7503 -83.9311 44° Northeast 486 559 29,000 -244 Descending Indianapolis Center
Mon 08:57:35 AM 39.8550 -83.8189 39° Northeast 481 554 28,900 -488 Descending Indianapolis Center
Mon 08:58:37 AM 39.9614 -83.7044 39° Northeast 484 557 28,000 -976 Descending Indianapolis Center
Mon 08:59:38 AM 40.0711 -83.5867 39° Northeast 498 573 26,900 -1,024 Descending Indianapolis Center
Mon 09:00:40 AM 40.1786 -83.4694 40° Northeast 495 570 25,900 -1,355 Descending Indianapolis Center
Mon 09:01:42 AM 40.2800 -83.3503 42° Northeast 484 557 24,100 -1,854 Descending Indianapolis Center
Mon 09:02:43 AM 40.3764 -83.2256 45° Northeast 480 552 22,100 -1,951 Descending Indianapolis Center
Mon 09:03:45 AM 40.4700 -83.1056 44° Northeast 469 540 20,100 -1,548 Descending Indianapolis Center
Mon 09:04:47 AM 40.5628 -82.9875 44° Northeast 454 522 18,900 -1,659 Descending Indianapolis Center
Mon 09:05:48 AM 40.6497 -82.8725 45° Northeast 440 506 16,700 -2,296 Descending Indianapolis Center
Mon 09:06:08 AM 40.6764 -82.8392 43° Northeast 437 503 15,800 -2,250 Descending Cleveland Center
Mon 09:06:52 AM 40.7319 -82.7697 43° Northeast 416 479 14,300 -2,200 Descending Cleveland Center
Mon 09:07:08 AM 40.7661 -82.7242 45° Northeast 418 481 13,600 -2,500 Descending Cleveland Center
Mon 09:07:40 AM 40.8089 -82.6708 43° Northeast 414 476 12,300 -2,200 Descending Cleveland Center
Mon 09:08:08 AM 40.8453 -82.6197 47° Northeast 406 467 11,400 -1,791 Descending Cleveland Center
Mon 09:08:47 AM 40.8900 -82.5661 42° Northeast 363 418 10,300 -1,400 Descending Cleveland Center
Mon 09:09:08 AM 40.9178 -82.5258 48° Northeast 381 438 10,000 -327 Descending Cleveland Center
Mon 09:09:42 AM 40.9603 -82.4719 44° Northeast 381 438 10,000  Level Cleveland Center
Mon 09:10:08 AM 40.9925 -82.4236 49° Northeast 376 433 10,000  Level Cleveland Center
Mon 09:10:42 AM 41.0331 -82.3694 45° Northeast 387 445 10,000  Level Cleveland Center
Mon 09:11:08 AM 41.0711 -82.3211 44° Northeast 376 433 10,000  Level Cleveland Center
Mon 09:11:49 AM 41.1264 -82.2508 44° Northeast 396 456 10,000  Level Cleveland Center
Mon 09:12:09 AM 41.1456 -82.2211 49° Northeast 381 438 10,000  Level Cleveland Center
Mon 09:12:50 AM 41.1986 -82.1533 44° Northeast 380 437 10,000  Level Cleveland Center
Mon 09:13:08 AM 41.2200 -82.1233 47° Northeast 375 432 10,000 -111 Level Cleveland Center
Mon 09:13:44 AM 41.2561 -82.0800 42° Northeast 323 372 9,900 -400 Descending Cleveland Center
Mon 09:14:08 AM 41.2772 -82.0475 49° Northeast 347 399 9,600 -1,343 Descending Cleveland Center
Mon 09:14:51 AM 41.3114 -81.9764 57° Northeast 295 339 8,400 -1,400 Descending Cleveland Center
Mon 09:15:08 AM 41.3181 -81.9544 68° East 303 349 8,200 -984 Descending Cleveland Center
Mon 09:15:52 AM 41.3419 -81.8719 69° East 289 333 7,400 -1,000 Descending Cleveland Center
Mon 09:16:08 AM 41.3464 -81.8528 73° East 283 326 7,200 -1,250 Descending Cleveland Center
Mon 09:17:04 AM 41.3722 -81.7564 70° East 281 323 5,900 -1,730 Descending Cleveland Center
Mon 09:17:59 AM 41.4189 -81.6853 49° Northeast 274 315 4,000 -1,426 Descending Cleveland Center
Mon 09:19:06 AM 41.4878 -81.6919 356° North 251 289 3,000 -661 Descending Cleveland Center
Mon 09:20:06 AM 41.4725 -81.7608 254° West 225 259 2,600 -661 Descending Cleveland Center
Mon 09:21:13 AM 41.4364 -81.8044 222° Southwest 131 151 1,600 -896 Descending Cleveland Center

Login

Don't have an account? Register now (free) for customized features, flight alerts, and more!